createdAt,value
2023-02-20T00:00:00.673Z,5.2
2023-02-20T00:05:00.666Z,7.2
2023-02-20T00:10:00.682Z,8.0
2023-02-20T00:15:00.674Z,8.8
2023-02-20T00:20:00.655Z,4.1
2023-02-20T00:25:00.682Z,3.7
2023-02-20T00:30:00.681Z,4.7
2023-02-20T00:35:00.672Z,5.1
2023-02-20T00:40:00.679Z,6.2
2023-02-20T00:45:00.663Z,4.8
2023-02-20T00:50:00.685Z,7.9
2023-02-20T00:55:00.670Z,9.5
2023-02-20T01:00:00.635Z,5.0
2023-02-20T01:05:00.706Z,6.0
2023-02-20T01:10:00.676Z,4.2
2023-02-20T01:15:00.635Z,3.0
2023-02-20T01:20:00.683Z,3.6
2023-02-20T01:25:00.684Z,4.7
2023-02-20T01:30:00.643Z,7.5
2023-02-20T01:35:00.708Z,4.8
2023-02-20T01:40:00.671Z,6.4
2023-02-20T01:45:00.666Z,3.5
2023-02-20T01:50:00.673Z,3.1
2023-02-20T01:55:00.679Z,7.2
2023-02-20T02:00:00.682Z,6.3
2023-02-20T02:05:00.669Z,5.7
2023-02-20T02:10:00.645Z,5.4
2023-02-20T02:15:00.674Z,5.2
2023-02-20T02:20:00.692Z,7.4
2023-02-20T02:25:00.681Z,9.9
2023-02-20T02:30:00.669Z,5.5
2023-02-20T02:35:00.682Z,5.6
2023-02-20T02:40:00.668Z,6.3
2023-02-20T02:45:00.666Z,7.1
2023-02-20T02:50:00.656Z,6.7
2023-02-20T02:55:00.657Z,5.3
2023-02-20T03:00:00.670Z,7.3
2023-02-20T03:05:00.670Z,5.2
2023-02-20T03:10:00.663Z,6.1
2023-02-20T03:15:00.669Z,7.2
2023-02-20T03:20:00.697Z,8.3
2023-02-20T03:25:00.669Z,7.5
2023-02-20T03:30:00.662Z,7.4
2023-02-20T03:35:00.693Z,7.4
2023-02-20T03:40:00.659Z,7.5
2023-02-20T03:45:00.694Z,8.1
2023-02-20T03:50:00.681Z,6.1
2023-02-20T03:55:00.672Z,6.3
2023-02-20T04:00:00.701Z,8.1
2023-02-20T04:05:00.670Z,9.5
2023-02-20T04:10:00.876Z,7.8
2023-02-20T04:15:00.696Z,6.9
2023-02-20T04:20:00.679Z,7.0
2023-02-20T04:25:00.696Z,9.1
2023-02-20T04:30:00.668Z,7.6
2023-02-20T04:35:00.679Z,7.1
2023-02-20T04:40:00.667Z,9.3
2023-02-20T04:45:00.674Z,8.2
2023-02-20T04:50:00.665Z,8.4
2023-02-20T04:55:00.663Z,9.7
2023-02-20T05:00:00.675Z,9.4
2023-02-20T05:05:00.661Z,8.5
2023-02-20T05:10:00.720Z,11.6
2023-02-20T05:15:00.650Z,9.4
2023-02-20T05:20:00.723Z,8.5
2023-02-20T05:25:00.954Z,12.6
2023-02-20T05:30:00.674Z,11.0
2023-02-20T05:35:00.668Z,11.2
2023-02-20T05:40:00.685Z,10.9
2023-02-20T05:45:00.651Z,10.6
2023-02-20T05:50:00.688Z,11.3
2023-02-20T05:55:00.700Z,15.2
2023-02-20T06:00:00.695Z,10.6
2023-02-20T06:05:00.758Z,12.3
2023-02-20T06:10:00.683Z,12.5
2023-02-20T06:15:00.675Z,14.9
2023-02-20T06:20:00.686Z,11.1
2023-02-20T06:25:00.683Z,13.9
2023-02-20T06:30:00.697Z,12.1
2023-02-20T06:35:00.683Z,14.8
2023-02-20T06:40:00.645Z,14.5
2023-02-20T06:45:00.717Z,13.2
2023-02-20T06:50:00.647Z,15.9
2023-02-20T06:55:00.698Z,15.1
2023-02-20T07:00:00.689Z,14.6
2023-02-20T07:05:00.711Z,15.6
2023-02-20T07:10:00.640Z,21.7
2023-02-20T07:15:00.702Z,18.7
2023-02-20T07:20:00.682Z,20.1
2023-02-20T07:25:00.682Z,18.3
2023-02-20T07:30:00.664Z,15.0
2023-02-20T07:35:05.402Z,19.0
2023-02-20T07:40:00.662Z,23.0
2023-02-20T07:45:00.642Z,22.5
2023-02-20T07:50:00.666Z,20.3
2023-02-20T07:55:00.698Z,21.4
2023-02-20T08:00:00.704Z,18.9
2023-02-20T08:05:00.749Z,21.6
2023-02-20T08:10:00.656Z,23.0
2023-02-20T08:15:00.667Z,22.8
2023-02-20T08:20:00.691Z,28.1
2023-02-20T08:25:00.682Z,20.7
2023-02-20T08:30:00.708Z,19.6
2023-02-20T08:35:00.714Z,22.0
2023-02-20T08:40:00.755Z,27.9
2023-02-20T08:45:00.673Z,25.9
2023-02-20T08:50:00.679Z,27.7
2023-02-20T08:55:00.633Z,28.5
2023-02-20T09:00:00.700Z,29.2
2023-02-20T09:05:00.636Z,25.2
2023-02-20T09:10:00.672Z,26.3
2023-02-20T09:15:00.695Z,28.1
2023-02-20T09:20:00.674Z,30.9
2023-02-20T09:25:00.687Z,30.1
2023-02-20T09:30:00.681Z,26.8
2023-02-20T09:35:00.697Z,30.5
2023-02-20T09:40:00.676Z,30.4
2023-02-20T09:45:00.742Z,26.4
2023-02-20T09:50:00.676Z,29.3
2023-02-20T09:55:00.719Z,24.9
2023-02-20T10:00:04.568Z,30.3
2023-02-20T10:05:02.046Z,28.7
2023-02-20T10:10:00.694Z,26.6
2023-02-20T10:15:00.668Z,20.4
2023-02-20T10:20:00.670Z,24.4
2023-02-20T10:25:00.714Z,19.7
2023-02-20T10:30:00.703Z,21.3
2023-02-20T10:35:00.671Z,18.6
2023-02-20T10:40:00.724Z,18.9
2023-02-20T10:45:00.664Z,16.9
2023-02-20T10:50:00.686Z,14.3
2023-02-20T10:55:00.691Z,15.7
2023-02-20T11:00:00.701Z,17.4
2023-02-20T11:05:00.641Z,16.0
2023-02-20T11:10:00.687Z,15.6
2023-02-20T11:15:00.687Z,17.1
2023-02-20T11:20:00.691Z,12.9
2023-02-20T11:25:00.652Z,13.1
2023-02-20T11:30:00.717Z,10.7
2023-02-20T11:35:00.666Z,14.1
2023-02-20T11:40:00.681Z,8.0
2023-02-20T11:45:00.673Z,12.5
2023-02-20T11:50:13.471Z,9.8
2023-02-20T11:55:00.653Z,9.3
2023-02-20T12:00:00.682Z,10.8
2023-02-20T12:05:00.758Z,9.7
2023-02-20T12:10:00.680Z,10.1
2023-02-20T12:15:00.650Z,11.6
2023-02-20T12:20:00.672Z,9.4
2023-02-20T12:25:00.692Z,8.3
2023-02-20T12:30:00.662Z,12.2
2023-02-20T12:35:00.693Z,9.6
2023-02-20T12:40:00.660Z,8.2
2023-02-20T12:45:00.673Z,8.8
2023-02-20T12:50:00.686Z,8.9
2023-02-20T12:55:00.652Z,10.5
2023-02-20T13:00:00.671Z,7.5
2023-02-20T13:05:00.676Z,10.5
2023-02-20T13:10:00.690Z,11.0
2023-02-20T13:15:00.671Z,8.0
2023-02-20T13:20:00.675Z,5.6
2023-02-20T13:25:00.673Z,8.6
2023-02-20T13:30:00.744Z,8.5
2023-02-20T13:35:00.669Z,8.8
2023-02-20T13:40:00.682Z,11.0
2023-02-20T13:45:00.691Z,8.1
2023-02-20T13:50:00.787Z,6.6
2023-02-20T13:55:00.663Z,12.9
2023-02-20T14:00:00.686Z,11.1
2023-02-20T14:05:00.735Z,8.4
2023-02-20T14:10:00.670Z,6.6
2023-02-20T14:15:00.668Z,8.5
2023-02-20T14:20:18.518Z,10.3
2023-02-20T14:25:00.681Z,7.3
2023-02-20T14:30:00.668Z,8.0
2023-02-20T14:35:00.688Z,8.7
2023-02-20T14:40:00.672Z,10.8
2023-02-20T14:45:00.696Z,7.7
2023-02-20T14:50:00.681Z,11.3
2023-02-20T14:55:00.685Z,10.7
2023-02-20T15:00:00.685Z,12.5
2023-02-20T15:05:00.659Z,6.8
2023-02-20T15:10:00.694Z,8.7
2023-02-20T15:15:00.685Z,6.7
2023-02-20T15:20:00.672Z,14.0
2023-02-20T15:25:00.629Z,5.4
2023-02-20T15:30:00.683Z,9.4
2023-02-20T15:35:00.662Z,9.2
2023-02-20T15:40:00.674Z,9.4
2023-02-20T15:45:00.674Z,11.6
2023-02-20T15:50:00.679Z,8.6
2023-02-20T15:55:00.667Z,7.6
2023-02-20T16:00:00.699Z,13.4
2023-02-20T16:05:00.666Z,10.2
2023-02-20T16:10:00.683Z,11.7
2023-02-20T16:15:00.641Z,15.3
2023-02-20T16:20:00.776Z,11.7
2023-02-20T16:25:00.685Z,7.3
2023-02-20T16:30:00.720Z,9.1
2023-02-20T16:35:00.685Z,9.0
2023-02-20T16:40:00.706Z,10.7
2023-02-20T16:45:00.715Z,8.1
2023-02-20T16:50:00.654Z,8.9
2023-02-20T16:55:00.704Z,8.6
2023-02-20T17:00:00.758Z,6.5
2023-02-20T17:05:00.768Z,9.5
2023-02-20T17:10:00.683Z,5.0
2023-02-20T17:15:01.039Z,10.3
2023-02-20T17:20:00.637Z,7.3
2023-02-20T17:25:00.700Z,5.8
2023-02-20T17:30:00.735Z,5.6
2023-02-20T17:35:00.700Z,4.9
2023-02-20T17:40:00.651Z,5.1
2023-02-20T17:45:00.769Z,6.0
2023-02-20T17:50:00.997Z,6.8
2023-02-20T17:55:00.671Z,5.4
2023-02-20T18:00:00.690Z,10.9
2023-02-20T18:05:00.681Z,7.9
2023-02-20T18:10:00.671Z,4.7
2023-02-20T18:15:00.670Z,3.9
2023-02-20T18:20:00.695Z,6.3
2023-02-20T18:25:00.688Z,8.3
2023-02-20T18:30:00.668Z,8.1
2023-02-20T18:35:00.694Z,7.4
2023-02-20T18:40:00.696Z,9.9
2023-02-20T18:45:00.683Z,6.2
2023-02-20T18:50:00.694Z,6.3
2023-02-20T18:55:00.742Z,8.4
2023-02-20T19:00:00.684Z,7.3
2023-02-20T19:05:00.693Z,11.4
2023-02-20T19:10:00.725Z,9.3
2023-02-20T19:15:00.683Z,7.9
2023-02-20T19:20:00.683Z,9.3
2023-02-20T19:25:00.730Z,10.9
2023-02-20T19:30:00.717Z,7.5
2023-02-20T19:35:00.667Z,11.0
2023-02-20T19:40:00.694Z,11.6
2023-02-20T19:45:00.673Z,10.1
2023-02-20T19:50:00.701Z,7.5
2023-02-20T19:55:00.869Z,9.4
2023-02-20T20:00:00.669Z,10.3
2023-02-20T20:05:00.677Z,15.4
2023-02-20T20:10:00.640Z,8.2
2023-02-20T20:15:00.743Z,9.6
2023-02-20T20:20:01.128Z,5.6
2023-02-20T20:25:00.679Z,5.1
2023-02-20T20:30:00.683Z,3.0
2023-02-20T20:35:00.647Z,4.9
2023-02-20T20:40:00.700Z,4.4
2023-02-20T20:45:00.695Z,2.8
2023-02-20T20:50:00.699Z,5.8
2023-02-20T20:55:00.677Z,5.0
2023-02-20T21:00:01.364Z,3.1
2023-02-20T21:05:09.783Z,3.9
2023-02-20T21:10:00.681Z,5.9
2023-02-20T21:15:00.654Z,6.8
2023-02-20T21:20:00.679Z,4.7
2023-02-20T21:25:00.659Z,7.0
2023-02-20T21:30:00.698Z,4.3
2023-02-20T21:35:00.652Z,4.0
2023-02-20T21:40:00.684Z,4.6
2023-02-20T21:45:00.631Z,4.0
2023-02-20T21:50:00.690Z,7.1
2023-02-20T21:55:00.685Z,4.5
2023-02-20T22:00:00.953Z,2.5
2023-02-20T22:05:00.699Z,4.9
2023-02-20T22:10:00.641Z,4.2
2023-02-20T22:15:01.185Z,3.4
2023-02-20T22:20:00.646Z,5.1
2023-02-20T22:25:00.684Z,6.7
2023-02-20T22:30:00.710Z,5.2
2023-02-20T22:35:10.884Z,3.4
2023-02-20T22:40:00.682Z,6.2
2023-02-20T22:45:00.689Z,4.8
2023-02-20T22:50:00.701Z,5.7
2023-02-20T22:55:05.515Z,6.2
2023-02-20T23:00:00.688Z,2.9
2023-02-20T23:05:00.685Z,6.3
2023-02-20T23:10:00.712Z,4.9
2023-02-20T23:15:00.649Z,3.9
2023-02-20T23:20:00.694Z,5.0
2023-02-20T23:25:00.711Z,4.4
2023-02-20T23:30:00.680Z,5.1
2023-02-20T23:35:00.647Z,3.8
2023-02-20T23:40:00.683Z,3.2
2023-02-20T23:45:00.683Z,8.4
2023-02-20T23:50:00.659Z,4.7
2023-02-20T23:55:00.678Z,3.8
